sensor_id;sensor_type;location;lat;lon;timestamp;pressure;altitude;pressure_sealevel;temperature
19282;BMP180;9774;52.034;5.342;2024-03-17T00:01:12;102141.00;;;11.60
19282;BMP180;9774;52.034;5.342;2024-03-17T00:03:39;102136.00;;;11.60
19282;BMP180;9774;52.034;5.342;2024-03-17T00:06:07;102140.00;;;11.60
19282;BMP180;9774;52.034;5.342;2024-03-17T00:08:35;102132.00;;;11.60
19282;BMP180;9774;52.034;5.342;2024-03-17T00:11:01;102135.00;;;11.60
19282;BMP180;9774;52.034;5.342;2024-03-17T00:13:28;102129.00;;;11.60
19282;BMP180;9774;52.034;5.342;2024-03-17T00:15:55;102122.00;;;11.60
19282;BMP180;9774;52.034;5.342;2024-03-17T00:18:22;102120.00;;;11.60
19282;BMP180;9774;52.034;5.342;2024-03-17T00:20:48;102120.00;;;11.60
19282;BMP180;9774;52.034;5.342;2024-03-17T00:23:16;102112.00;;;11.60
19282;BMP180;9774;52.034;5.342;2024-03-17T00:25:42;102113.00;;;11.70
19282;BMP180;9774;52.034;5.342;2024-03-17T00:28:09;102117.00;;;11.70
19282;BMP180;9774;52.034;5.342;2024-03-17T00:30:37;102114.00;;;11.70
19282;BMP180;9774;52.034;5.342;2024-03-17T00:33:04;102111.00;;;11.70
19282;BMP180;9774;52.034;5.342;2024-03-17T00:35:30;102114.00;;;11.70
19282;BMP180;9774;52.034;5.342;2024-03-17T00:37:59;102109.00;;;11.70
19282;BMP180;9774;52.034;5.342;2024-03-17T00:40:27;102112.00;;;11.70
19282;BMP180;9774;52.034;5.342;2024-03-17T00:42:54;102108.00;;;11.70
19282;BMP180;9774;52.034;5.342;2024-03-17T00:45:20;102100.00;;;11.80
19282;BMP180;9774;52.034;5.342;2024-03-17T00:47:47;102102.00;;;11.80
19282;BMP180;9774;52.034;5.342;2024-03-17T00:50:15;102105.00;;;11.80
19282;BMP180;9774;52.034;5.342;2024-03-17T00:52:42;102101.00;;;11.80
19282;BMP180;9774;52.034;5.342;2024-03-17T00:55:08;102105.00;;;11.80
19282;BMP180;9774;52.034;5.342;2024-03-17T00:57:37;102108.00;;;11.80
19282;BMP180;9774;52.034;5.342;2024-03-17T01:00:06;102104.00;;;11.80
19282;BMP180;9774;52.034;5.342;2024-03-17T01:02:35;102096.00;;;11.70
19282;BMP180;9774;52.034;5.342;2024-03-17T01:05:02;102097.00;;;11.80
19282;BMP180;9774;52.034;5.342;2024-03-17T01:07:31;102095.00;;;11.80
19282;BMP180;9774;52.034;5.342;2024-03-17T01:09:58;102092.00;;;11.80
19282;BMP180;9774;52.034;5.342;2024-03-17T01:12:25;102096.00;;;11.80
19282;BMP180;9774;52.034;5.342;2024-03-17T01:14:54;102088.00;;;11.80
19282;BMP180;9774;52.034;5.342;2024-03-17T01:17:20;102091.00;;;11.80
19282;BMP180;9774;52.034;5.342;2024-03-17T01:19:47;102093.00;;;11.80
19282;BMP180;9774;52.034;5.342;2024-03-17T01:22:13;102096.00;;;11.80
19282;BMP180;9774;52.034;5.342;2024-03-17T01:24:40;102087.00;;;11.80
19282;BMP180;9774;52.034;5.342;2024-03-17T01:27:11;102081.00;;;11.80
19282;BMP180;9774;52.034;5.342;2024-03-17T01:29:41;102072.00;;;11.80
19282;BMP180;9774;52.034;5.342;2024-03-17T01:32:10;102071.00;;;11.80
19282;BMP180;9774;52.034;5.342;2024-03-17T01:34:37;102073.00;;;11.90
19282;BMP180;9774;52.034;5.342;2024-03-17T01:37:04;102066.00;;;11.90
19282;BMP180;9774;52.034;5.342;2024-03-17T01:39:31;102059.00;;;11.90
19282;BMP180;9774;52.034;5.342;2024-03-17T01:41:58;102053.00;;;11.90
19282;BMP180;9774;52.034;5.342;2024-03-17T01:44:27;102059.00;;;11.90
19282;BMP180;9774;52.034;5.342;2024-03-17T01:46:54;102056.00;;;11.90
19282;BMP180;9774;52.034;5.342;2024-03-17T01:49:25;102056.00;;;11.80
19282;BMP180;9774;52.034;5.342;2024-03-17T01:51:53;102056.00;;;11.80
19282;BMP180;9774;52.034;5.342;2024-03-17T01:54:21;102056.00;;;11.80
19282;BMP180;9774;52.034;5.342;2024-03-17T01:56:47;102048.00;;;11.80
19282;BMP180;9774;52.034;5.342;2024-03-17T01:59:15;102052.00;;;11.80
19282;BMP180;9774;52.034;5.342;2024-03-17T02:01:41;102042.00;;;11.80
19282;BMP180;9774;52.034;5.342;2024-03-17T02:04:08;102031.00;;;11.80
19282;BMP180;9774;52.034;5.342;2024-03-17T02:06:35;102037.00;;;11.80
19282;BMP180;9774;52.034;5.342;2024-03-17T02:09:02;102049.00;;;11.80
19282;BMP180;9774;52.034;5.342;2024-03-17T02:11:31;102034.00;;;11.80
19282;BMP180;9774;52.034;5.342;2024-03-17T02:13:59;102044.00;;;11.80
19282;BMP180;9774;52.034;5.342;2024-03-17T02:16:26;102038.00;;;11.80
19282;BMP180;9774;52.034;5.342;2024-03-17T02:18:54;102034.00;;;11.80
19282;BMP180;9774;52.034;5.342;2024-03-17T02:21:21;102033.00;;;11.80
19282;BMP180;9774;52.034;5.342;2024-03-17T02:23:50;102034.00;;;11.90
19282;BMP180;9774;52.034;5.342;2024-03-17T02:26:17;102022.00;;;11.90
19282;BMP180;9774;52.034;5.342;2024-03-17T02:28:46;102011.00;;;11.90
19282;BMP180;9774;52.034;5.342;2024-03-17T02:31:15;102022.00;;;11.90
19282;BMP180;9774;52.034;5.342;2024-03-17T02:33:43;102019.00;;;12.00
19282;BMP180;9774;52.034;5.342;2024-03-17T02:36:10;102021.00;;;12.00
19282;BMP180;9774;52.034;5.342;2024-03-17T02:38:38;102021.00;;;12.00
19282;BMP180;9774;52.034;5.342;2024-03-17T02:41:24;102019.00;;;12.10
19282;BMP180;9774;52.034;5.342;2024-03-17T02:43:52;102021.00;;;12.10
19282;BMP180;9774;52.034;5.342;2024-03-17T02:46:20;102017.00;;;12.10
19282;BMP180;9774;52.034;5.342;2024-03-17T02:48:51;102017.00;;;12.10
19282;BMP180;9774;52.034;5.342;2024-03-17T02:51:21;102022.00;;;12.20
19282;BMP180;9774;52.034;5.342;2024-03-17T02:53:49;102021.00;;;12.20
19282;BMP180;9774;52.034;5.342;2024-03-17T02:56:18;102013.00;;;12.30
19282;BMP180;9774;52.034;5.342;2024-03-17T02:58:47;102017.00;;;12.20
19282;BMP180;9774;52.034;5.342;2024-03-17T03:01:17;102012.00;;;12.30
19282;BMP180;9774;52.034;5.342;2024-03-17T03:03:45;102014.00;;;12.40
19282;BMP180;9774;52.034;5.342;2024-03-17T03:06:12;102012.00;;;12.40
19282;BMP180;9774;52.034;5.342;2024-03-17T03:08:41;102006.00;;;12.40
19282;BMP180;9774;52.034;5.342;2024-03-17T03:11:11;102010.00;;;12.40
19282;BMP180;9774;52.034;5.342;2024-03-17T03:13:39;102006.00;;;12.50
19282;BMP180;9774;52.034;5.342;2024-03-17T03:16:09;102017.00;;;12.50
19282;BMP180;9774;52.034;5.342;2024-03-17T03:18:38;102013.00;;;12.50
19282;BMP180;9774;52.034;5.342;2024-03-17T03:21:06;102012.00;;;12.60
19282;BMP180;9774;52.034;5.342;2024-03-17T03:23:34;102026.00;;;12.60
19282;BMP180;9774;52.034;5.342;2024-03-17T03:26:03;102020.00;;;12.60
19282;BMP180;9774;52.034;5.342;2024-03-17T03:28:31;102023.00;;;12.60
19282;BMP180;9774;52.034;5.342;2024-03-17T03:30:59;102010.00;;;12.70
19282;BMP180;9774;52.034;5.342;2024-03-17T03:33:29;102011.00;;;12.70
19282;BMP180;9774;52.034;5.342;2024-03-17T03:35:56;101999.00;;;12.70
19282;BMP180;9774;52.034;5.342;2024-03-17T03:38:23;101991.00;;;12.70
19282;BMP180;9774;52.034;5.342;2024-03-17T03:40:51;101993.00;;;12.80
19282;BMP180;9774;52.034;5.342;2024-03-17T03:43:19;101993.00;;;12.80
19282;BMP180;9774;52.034;5.342;2024-03-17T03:45:46;101996.00;;;12.80
19282;BMP180;9774;52.034;5.342;2024-03-17T03:48:13;101990.00;;;12.80
19282;BMP180;9774;52.034;5.342;2024-03-17T03:50:41;101994.00;;;12.80
19282;BMP180;9774;52.034;5.342;2024-03-17T03:53:09;101988.00;;;12.90
19282;BMP180;9774;52.034;5.342;2024-03-17T03:55:37;101980.00;;;12.90
19282;BMP180;9774;52.034;5.342;2024-03-17T03:58:04;101968.00;;;12.90
19282;BMP180;9774;52.034;5.342;2024-03-17T04:00:31;101962.00;;;12.90
19282;BMP180;9774;52.034;5.342;2024-03-17T04:02:59;101951.00;;;12.90
19282;BMP180;9774;52.034;5.342;2024-03-17T04:05:27;101952.00;;;12.90
19282;BMP180;9774;52.034;5.342;2024-03-17T04:07:56;101952.00;;;12.90
19282;BMP180;9774;52.034;5.342;2024-03-17T04:10:24;101944.00;;;12.90
19282;BMP180;9774;52.034;5.342;2024-03-17T04:12:52;101942.00;;;13.00
19282;BMP180;9774;52.034;5.342;2024-03-17T04:15:19;101943.00;;;13.00
19282;BMP180;9774;52.034;5.342;2024-03-17T04:17:46;101945.00;;;12.90
19282;BMP180;9774;52.034;5.342;2024-03-17T04:20:14;101942.00;;;13.00
19282;BMP180;9774;52.034;5.342;2024-03-17T04:22:42;101941.00;;;13.00
19282;BMP180;9774;52.034;5.342;2024-03-17T04:25:11;101935.00;;;13.00
19282;BMP180;9774;52.034;5.342;2024-03-17T04:27:40;101942.00;;;13.00
19282;BMP180;9774;52.034;5.342;2024-03-17T04:30:08;101943.00;;;13.00
19282;BMP180;9774;52.034;5.342;2024-03-17T04:32:37;101935.00;;;13.00
19282;BMP180;9774;52.034;5.342;2024-03-17T04:35:05;101936.00;;;13.00
19282;BMP180;9774;52.034;5.342;2024-03-17T04:37:32;101934.00;;;13.10
19282;BMP180;9774;52.034;5.342;2024-03-17T04:40:06;101921.00;;;13.00
19282;BMP180;9774;52.034;5.342;2024-03-17T04:42:37;101925.00;;;13.00
19282;BMP180;9774;52.034;5.342;2024-03-17T04:45:07;101923.00;;;13.00
19282;BMP180;9774;52.034;5.342;2024-03-17T04:47:36;101922.00;;;13.00
19282;BMP180;9774;52.034;5.342;2024-03-17T04:50:05;101926.00;;;13.10
19282;BMP180;9774;52.034;5.342;2024-03-17T04:52:32;101930.00;;;13.10
19282;BMP180;9774;52.034;5.342;2024-03-17T04:54:59;101931.00;;;13.10
19282;BMP180;9774;52.034;5.342;2024-03-17T04:57:26;101935.00;;;13.10
19282;BMP180;9774;52.034;5.342;2024-03-17T04:59:55;101940.00;;;13.10
19282;BMP180;9774;52.034;5.342;2024-03-17T05:02:22;101937.00;;;13.10
19282;BMP180;9774;52.034;5.342;2024-03-17T05:04:50;101929.00;;;13.10
19282;BMP180;9774;52.034;5.342;2024-03-17T05:07:17;101929.00;;;13.10
19282;BMP180;9774;52.034;5.342;2024-03-17T05:09:44;101928.00;;;13.10
19282;BMP180;9774;52.034;5.342;2024-03-17T05:12:12;101933.00;;;13.10
19282;BMP180;9774;52.034;5.342;2024-03-17T05:14:39;101926.00;;;13.10
19282;BMP180;9774;52.034;5.342;2024-03-17T05:17:07;101928.00;;;13.10
19282;BMP180;9774;52.034;5.342;2024-03-17T05:19:34;101928.00;;;13.10
19282;BMP180;9774;52.034;5.342;2024-03-17T05:22:02;101931.00;;;13.10
19282;BMP180;9774;52.034;5.342;2024-03-17T05:24:29;101932.00;;;13.20
19282;BMP180;9774;52.034;5.342;2024-03-17T05:26:56;101937.00;;;13.10
19282;BMP180;9774;52.034;5.342;2024-03-17T05:29:23;101935.00;;;13.10
19282;BMP180;9774;52.034;5.342;2024-03-17T05:31:50;101930.00;;;13.10
19282;BMP180;9774;52.034;5.342;2024-03-17T05:34:18;101927.00;;;13.10
19282;BMP180;9774;52.034;5.342;2024-03-17T05:36:46;101913.00;;;13.10
19282;BMP180;9774;52.034;5.342;2024-03-17T05:39:13;101905.00;;;13.10
19282;BMP180;9774;52.034;5.342;2024-03-17T05:41:40;101909.00;;;13.10
19282;BMP180;9774;52.034;5.342;2024-03-17T05:44:09;101908.00;;;13.10
19282;BMP180;9774;52.034;5.342;2024-03-17T05:46:36;101907.00;;;13.10
19282;BMP180;9774;52.034;5.342;2024-03-17T05:49:03;101915.00;;;13.00
19282;BMP180;9774;52.034;5.342;2024-03-17T05:51:32;101913.00;;;13.00
19282;BMP180;9774;52.034;5.342;2024-03-17T05:53:59;101919.00;;;13.00
19282;BMP180;9774;52.034;5.342;2024-03-17T05:56:26;101922.00;;;13.00
19282;BMP180;9774;52.034;5.342;2024-03-17T05:58:53;101922.00;;;13.00
19282;BMP180;9774;52.034;5.342;2024-03-17T06:01:20;101924.00;;;13.00
19282;BMP180;9774;52.034;5.342;2024-03-17T06:03:49;101928.00;;;12.90
19282;BMP180;9774;52.034;5.342;2024-03-17T06:06:16;101928.00;;;12.90
19282;BMP180;9774;52.034;5.342;2024-03-17T06:08:44;101924.00;;;12.90
19282;BMP180;9774;52.034;5.342;2024-03-17T06:11:11;101928.00;;;12.90
19282;BMP180;9774;52.034;5.342;2024-03-17T06:13:39;101923.00;;;12.90
19282;BMP180;9774;52.034;5.342;2024-03-17T06:16:06;101919.00;;;12.90
19282;BMP180;9774;52.034;5.342;2024-03-17T06:18:33;101927.00;;;13.00
19282;BMP180;9774;52.034;5.342;2024-03-17T06:21:00;101923.00;;;13.00
19282;BMP180;9774;52.034;5.342;2024-03-17T06:23:27;101926.00;;;13.00
19282;BMP180;9774;52.034;5.342;2024-03-17T06:25:56;101915.00;;;13.00
19282;BMP180;9774;52.034;5.342;2024-03-17T06:28:23;101924.00;;;13.10
19282;BMP180;9774;52.034;5.342;2024-03-17T06:30:57;101921.00;;;13.00
19282;BMP180;9774;52.034;5.342;2024-03-17T06:33:26;101923.00;;;13.10
19282;BMP180;9774;52.034;5.342;2024-03-17T06:35:55;101909.00;;;13.20
19282;BMP180;9774;52.034;5.342;2024-03-17T06:38:22;101903.00;;;13.20
19282;BMP180;9774;52.034;5.342;2024-03-17T06:40:50;101914.00;;;13.30
19282;BMP180;9774;52.034;5.342;2024-03-17T06:43:20;101909.00;;;13.30
19282;BMP180;9774;52.034;5.342;2024-03-17T06:45:55;101915.00;;;13.30
19282;BMP180;9774;52.034;5.342;2024-03-17T06:48:23;101925.00;;;13.40
19282;BMP180;9774;52.034;5.342;2024-03-17T06:50:50;101932.00;;;13.40
19282;BMP180;9774;52.034;5.342;2024-03-17T06:53:18;101923.00;;;13.50
19282;BMP180;9774;52.034;5.342;2024-03-17T06:55:53;101919.00;;;13.50
19282;BMP180;9774;52.034;5.342;2024-03-17T06:58:26;101917.00;;;13.50
19282;BMP180;9774;52.034;5.342;2024-03-17T07:00:56;101922.00;;;13.60
19282;BMP180;9774;52.034;5.342;2024-03-17T07:03:24;101920.00;;;13.70
19282;BMP180;9774;52.034;5.342;2024-03-17T07:05:54;101925.00;;;13.70
19282;BMP180;9774;52.034;5.342;2024-03-17T07:08:22;101923.00;;;13.70
19282;BMP180;9774;52.034;5.342;2024-03-17T07:10:58;101932.00;;;13.70
19282;BMP180;9774;52.034;5.342;2024-03-17T07:13:29;101934.00;;;13.80
19282;BMP180;9774;52.034;5.342;2024-03-17T07:15:56;101928.00;;;13.80
19282;BMP180;9774;52.034;5.342;2024-03-17T07:18:26;101936.00;;;13.90
19282;BMP180;9774;52.034;5.342;2024-03-17T07:20:56;101933.00;;;13.90
19282;BMP180;9774;52.034;5.342;2024-03-17T07:23:24;101927.00;;;14.00
19282;BMP180;9774;52.034;5.342;2024-03-17T07:25:55;101925.00;;;14.00
19282;BMP180;9774;52.034;5.342;2024-03-17T07:28:23;101932.00;;;14.00
19282;BMP180;9774;52.034;5.342;2024-03-17T07:30:54;101921.00;;;14.10
19282;BMP180;9774;52.034;5.342;2024-03-17T07:33:23;101916.00;;;14.20
19282;BMP180;9774;52.034;5.342;2024-03-17T07:35:51;101918.00;;;14.20
19282;BMP180;9774;52.034;5.342;2024-03-17T07:38:19;101915.00;;;14.30
19282;BMP180;9774;52.034;5.342;2024-03-17T07:40:57;101920.00;;;14.30
19282;BMP180;9774;52.034;5.342;2024-03-17T07:43:25;101923.00;;;14.40
19282;BMP180;9774;52.034;5.342;2024-03-17T07:46:04;101928.00;;;14.40
19282;BMP180;9774;52.034;5.342;2024-03-17T07:48:33;101922.00;;;14.60
19282;BMP180;9774;52.034;5.342;2024-03-17T07:51:03;101924.00;;;14.60
19282;BMP180;9774;52.034;5.342;2024-03-17T07:53:31;101911.00;;;14.70
19282;BMP180;9774;52.034;5.342;2024-03-17T07:55:59;101913.00;;;14.80
19282;BMP180;9774;52.034;5.342;2024-03-17T07:58:27;101916.00;;;14.90
19282;BMP180;9774;52.034;5.342;2024-03-17T08:00:57;101916.00;;;14.90
19282;BMP180;9774;52.034;5.342;2024-03-17T08:03:28;101915.00;;;15.00
19282;BMP180;9774;52.034;5.342;2024-03-17T08:05:57;101916.00;;;15.10
19282;BMP180;9774;52.034;5.342;2024-03-17T08:08:25;101923.00;;;15.20
19282;BMP180;9774;52.034;5.342;2024-03-17T08:10:51;101922.00;;;15.20
19282;BMP180;9774;52.034;5.342;2024-03-17T08:13:19;101921.00;;;15.30
19282;BMP180;9774;52.034;5.342;2024-03-17T08:15:55;101917.00;;;15.20
19282;BMP180;9774;52.034;5.342;2024-03-17T08:18:23;101922.00;;;15.40
19282;BMP180;9774;52.034;5.342;2024-03-17T08:20:52;101913.00;;;15.40
19282;BMP180;9774;52.034;5.342;2024-03-17T08:23:20;101905.00;;;15.40
19282;BMP180;9774;52.034;5.342;2024-03-17T08:25:52;101912.00;;;15.40
19282;BMP180;9774;52.034;5.342;2024-03-17T08:28:21;101913.00;;;15.50
19282;BMP180;9774;52.034;5.342;2024-03-17T08:30:52;101908.00;;;15.50
19282;BMP180;9774;52.034;5.342;2024-03-17T08:33:20;101917.00;;;15.50
19282;BMP180;9774;52.034;5.342;2024-03-17T08:35:57;101924.00;;;15.50
19282;BMP180;9774;52.034;5.342;2024-03-17T08:38:26;101916.00;;;15.60
19282;BMP180;9774;52.034;5.342;2024-03-17T08:40:54;101916.00;;;15.70
19282;BMP180;9774;52.034;5.342;2024-03-17T08:43:22;101908.00;;;15.70
19282;BMP180;9774;52.034;5.342;2024-03-17T08:45:56;101913.00;;;15.70
19282;BMP180;9774;52.034;5.342;2024-03-17T08:48:25;101912.00;;;15.80
19282;BMP180;9774;52.034;5.342;2024-03-17T08:50:56;101909.00;;;15.80
19282;BMP180;9774;52.034;5.342;2024-03-17T08:53:24;101916.00;;;15.90
19282;BMP180;9774;52.034;5.342;2024-03-17T08:55:52;101907.00;;;15.90
19282;BMP180;9774;52.034;5.342;2024-03-17T08:58:19;101907.00;;;16.00
19282;BMP180;9774;52.034;5.342;2024-03-17T09:00:46;101906.00;;;16.00
19282;BMP180;9774;52.034;5.342;2024-03-17T09:03:16;101898.00;;;16.00
19282;BMP180;9774;52.034;5.342;2024-03-17T09:05:47;101895.00;;;16.10
19282;BMP180;9774;52.034;5.342;2024-03-17T09:08:18;101894.00;;;16.10
19282;BMP180;9774;52.034;5.342;2024-03-17T09:10:51;101904.00;;;16.20
19282;BMP180;9774;52.034;5.342;2024-03-17T09:13:21;101890.00;;;16.30
19282;BMP180;9774;52.034;5.342;2024-03-17T09:15:56;101897.00;;;16.40
19282;BMP180;9774;52.034;5.342;2024-03-17T09:18:26;101902.00;;;16.50
19282;BMP180;9774;52.034;5.342;2024-03-17T09:20:58;101899.00;;;16.60
19282;BMP180;9774;52.034;5.342;2024-03-17T09:23:28;101896.00;;;16.70
19282;BMP180;9774;52.034;5.342;2024-03-17T09:25:57;101899.00;;;16.80
19282;BMP180;9774;52.034;5.342;2024-03-17T09:28:25;101898.00;;;16.80
19282;BMP180;9774;52.034;5.342;2024-03-17T09:30:52;101899.00;;;16.90
19282;BMP180;9774;52.034;5.342;2024-03-17T09:33:20;101898.00;;;17.00
19282;BMP180;9774;52.034;5.342;2024-03-17T09:35:54;101905.00;;;17.10
19282;BMP180;9774;52.034;5.342;2024-03-17T09:38:21;101900.00;;;17.20
19282;BMP180;9774;52.034;5.342;2024-03-17T09:40:51;101902.00;;;17.20
19282;BMP180;9774;52.034;5.342;2024-03-17T09:43:19;101894.00;;;17.20
19282;BMP180;9774;52.034;5.342;2024-03-17T09:45:47;101894.00;;;17.30
19282;BMP180;9774;52.034;5.342;2024-03-17T09:48:17;101892.00;;;17.40
19282;BMP180;9774;52.034;5.342;2024-03-17T09:50:51;101894.00;;;17.40
19282;BMP180;9774;52.034;5.342;2024-03-17T09:53:24;101893.00;;;17.50
19282;BMP180;9774;52.034;5.342;2024-03-17T09:55:58;101882.00;;;17.60
19282;BMP180;9774;52.034;5.342;2024-03-17T09:58:25;101881.00;;;17.70
19282;BMP180;9774;52.034;5.342;2024-03-17T10:00:52;101865.00;;;17.80
19282;BMP180;9774;52.034;5.342;2024-03-17T10:03:39;101879.00;;;17.80
19282;BMP180;9774;52.034;5.342;2024-03-17T10:06:07;101884.00;;;17.90
19282;BMP180;9774;52.034;5.342;2024-03-17T10:08:44;101877.00;;;17.90
19282;BMP180;9774;52.034;5.342;2024-03-17T10:11:14;101888.00;;;18.00
19282;BMP180;9774;52.034;5.342;2024-03-17T10:13:42;101891.00;;;18.00
19282;BMP180;9774;52.034;5.342;2024-03-17T10:16:24;101884.00;;;17.90
19282;BMP180;9774;52.034;5.342;2024-03-17T10:19:07;101877.00;;;18.00
19282;BMP180;9774;52.034;5.342;2024-03-17T10:21:37;101876.00;;;18.10
19282;BMP180;9774;52.034;5.342;2024-03-17T10:24:09;101872.00;;;18.10
19282;BMP180;9774;52.034;5.342;2024-03-17T10:26:41;101878.00;;;18.10
19282;BMP180;9774;52.034;5.342;2024-03-17T10:29:32;101865.00;;;18.10
19282;BMP180;9774;52.034;5.342;2024-03-17T10:32:04;101876.00;;;18.30
19282;BMP180;9774;52.034;5.342;2024-03-17T10:34:40;101873.00;;;18.40
19282;BMP180;9774;52.034;5.342;2024-03-17T10:37:10;101865.00;;;18.50
19282;BMP180;9774;52.034;5.342;2024-03-17T10:39:38;101873.00;;;18.60
19282;BMP180;9774;52.034;5.342;2024-03-17T10:42:10;101869.00;;;18.60
19282;BMP180;9774;52.034;5.342;2024-03-17T10:44:39;101864.00;;;18.70
19282;BMP180;9774;52.034;5.342;2024-03-17T10:47:16;101850.00;;;18.80
19282;BMP180;9774;52.034;5.342;2024-03-17T10:49:51;101854.00;;;18.80
19282;BMP180;9774;52.034;5.342;2024-03-17T10:52:21;101854.00;;;19.00
19282;BMP180;9774;52.034;5.342;2024-03-17T10:54:51;101846.00;;;19.00
19282;BMP180;9774;52.034;5.342;2024-03-17T10:57:36;101861.00;;;19.10
19282;BMP180;9774;52.034;5.342;2024-03-17T11:00:13;101849.00;;;19.30
19282;BMP180;9774;52.034;5.342;2024-03-17T11:02:44;101840.00;;;19.30
19282;BMP180;9774;52.034;5.342;2024-03-17T11:05:18;101847.00;;;19.40
19282;BMP180;9774;52.034;5.342;2024-03-17T11:07:48;101850.00;;;19.40
19282;BMP180;9774;52.034;5.342;2024-03-17T11:10:21;101844.00;;;19.50
19282;BMP180;9774;52.034;5.342;2024-03-17T11:12:51;101848.00;;;19.50
19282;BMP180;9774;52.034;5.342;2024-03-17T11:15:39;101851.00;;;19.50
19282;BMP180;9774;52.034;5.342;2024-03-17T11:18:39;101848.00;;;19.50
19282;BMP180;9774;52.034;5.342;2024-03-17T11:21:24;101846.00;;;19.50
19282;BMP180;9774;52.034;5.342;2024-03-17T11:24:00;101843.00;;;19.60
19282;BMP180;9774;52.034;5.342;2024-03-17T11:26:30;101853.00;;;19.60
19282;BMP180;9774;52.034;5.342;2024-03-17T11:28:59;101844.00;;;19.60
19282;BMP180;9774;52.034;5.342;2024-03-17T11:31:40;101849.00;;;19.60
19282;BMP180;9774;52.034;5.342;2024-03-17T11:34:26;101842.00;;;19.50
19282;BMP180;9774;52.034;5.342;2024-03-17T11:36:54;101836.00;;;19.60
19282;BMP180;9774;52.034;5.342;2024-03-17T11:40:02;101830.00;;;19.50
19282;BMP180;9774;52.034;5.342;2024-03-17T11:43:01;101835.00;;;19.50
19282;BMP180;9774;52.034;5.342;2024-03-17T11:45:28;101840.00;;;19.60
19282;BMP180;9774;52.034;5.342;2024-03-17T11:47:55;101847.00;;;19.50
19282;BMP180;9774;52.034;5.342;2024-03-17T11:50:22;101837.00;;;19.50
19282;BMP180;9774;52.034;5.342;2024-03-17T11:52:58;101831.00;;;19.40
19282;BMP180;9774;52.034;5.342;2024-03-17T11:55:24;101840.00;;;19.50
19282;BMP180;9774;52.034;5.342;2024-03-17T11:57:56;101835.00;;;19.50
19282;BMP180;9774;52.034;5.342;2024-03-17T12:00:24;101831.00;;;19.50
19282;BMP180;9774;52.034;5.342;2024-03-17T12:02:53;101830.00;;;19.50
19282;BMP180;9774;52.034;5.342;2024-03-17T12:05:19;101833.00;;;19.60
19282;BMP180;9774;52.034;5.342;2024-03-17T12:07:47;101828.00;;;19.60
19282;BMP180;9774;52.034;5.342;2024-03-17T12:10:13;101819.00;;;19.60
19282;BMP180;9774;52.034;5.342;2024-03-17T12:12:47;101817.00;;;19.50
19282;BMP180;9774;52.034;5.342;2024-03-17T12:15:18;101815.00;;;19.60
19282;BMP180;9774;52.034;5.342;2024-03-17T12:17:53;101807.00;;;19.50
19282;BMP180;9774;52.034;5.342;2024-03-17T12:20:21;101820.00;;;19.60
19282;BMP180;9774;52.034;5.342;2024-03-17T12:22:49;101808.00;;;19.60
19282;BMP180;9774;52.034;5.342;2024-03-17T12:25:19;101803.00;;;19.60
19282;BMP180;9774;52.034;5.342;2024-03-17T12:27:47;101801.00;;;19.60
19282;BMP180;9774;52.034;5.342;2024-03-17T12:30:14;101790.00;;;19.60
19282;BMP180;9774;52.034;5.342;2024-03-17T12:32:43;101794.00;;;19.60
19282;BMP180;9774;52.034;5.342;2024-03-17T12:35:16;101800.00;;;19.60
19282;BMP180;9774;52.034;5.342;2024-03-17T12:37:44;101791.00;;;19.70
19282;BMP180;9774;52.034;5.342;2024-03-17T12:40:21;101793.00;;;19.60
19282;BMP180;9774;52.034;5.342;2024-03-17T12:42:50;101787.00;;;19.70
19282;BMP180;9774;52.034;5.342;2024-03-17T12:45:20;101787.00;;;19.70
19282;BMP180;9774;52.034;5.342;2024-03-17T12:47:49;101785.00;;;19.70
19282;BMP180;9774;52.034;5.342;2024-03-17T12:50:17;101778.00;;;19.70
19282;BMP180;9774;52.034;5.342;2024-03-17T12:52:53;101773.00;;;19.60
19282;BMP180;9774;52.034;5.342;2024-03-17T12:55:19;101771.00;;;19.70
19282;BMP180;9774;52.034;5.342;2024-03-17T12:58:09;101767.00;;;19.70
19282;BMP180;9774;52.034;5.342;2024-03-17T13:00:59;101760.00;;;19.70
19282;BMP180;9774;52.034;5.342;2024-03-17T13:03:28;101769.00;;;19.80
19282;BMP180;9774;52.034;5.342;2024-03-17T13:05:58;101766.00;;;19.80
19282;BMP180;9774;52.034;5.342;2024-03-17T13:08:27;101766.00;;;19.80
19282;BMP180;9774;52.034;5.342;2024-03-17T13:10:54;101758.00;;;19.80
19282;BMP180;9774;52.034;5.342;2024-03-17T13:13:21;101757.00;;;19.80
19282;BMP180;9774;52.034;5.342;2024-03-17T13:15:48;101763.00;;;19.80
19282;BMP180;9774;52.034;5.342;2024-03-17T13:18:17;101750.00;;;19.80
19282;BMP180;9774;52.034;5.342;2024-03-17T13:20:45;101751.00;;;19.90
19282;BMP180;9774;52.034;5.342;2024-03-17T13:23:16;101746.00;;;19.90
19282;BMP180;9774;52.034;5.342;2024-03-17T13:25:44;101746.00;;;19.90
19282;BMP180;9774;52.034;5.342;2024-03-17T13:28:11;101743.00;;;19.90
19282;BMP180;9774;52.034;5.342;2024-03-17T13:30:38;101740.00;;;19.90
19282;BMP180;9774;52.034;5.342;2024-03-17T13:33:06;101738.00;;;19.90
19282;BMP180;9774;52.034;5.342;2024-03-17T13:35:37;101739.00;;;19.90
19282;BMP180;9774;52.034;5.342;2024-03-17T13:38:06;101735.00;;;19.90
19282;BMP180;9774;52.034;5.342;2024-03-17T13:40:35;101724.00;;;19.80
19282;BMP180;9774;52.034;5.342;2024-03-17T13:43:04;101731.00;;;19.90
19282;BMP180;9774;52.034;5.342;2024-03-17T13:45:39;101727.00;;;19.80
19282;BMP180;9774;52.034;5.342;2024-03-17T13:48:07;101724.00;;;19.80
19282;BMP180;9774;52.034;5.342;2024-03-17T13:50:37;101714.00;;;19.80
19282;BMP180;9774;52.034;5.342;2024-03-17T13:53:05;101708.00;;;19.80
19282;BMP180;9774;52.034;5.342;2024-03-17T13:55:34;101713.00;;;19.80
19282;BMP180;9774;52.034;5.342;2024-03-17T13:58:01;101701.00;;;19.80
19282;BMP180;9774;52.034;5.342;2024-03-17T14:00:32;101707.00;;;19.80
19282;BMP180;9774;52.034;5.342;2024-03-17T14:03:02;101697.00;;;19.90
19282;BMP180;9774;52.034;5.342;2024-03-17T14:05:29;101693.00;;;19.90
19282;BMP180;9774;52.034;5.342;2024-03-17T14:07:58;101689.00;;;19.90
19282;BMP180;9774;52.034;5.342;2024-03-17T14:10:26;101681.00;;;20.00
19282;BMP180;9774;52.034;5.342;2024-03-17T14:12:54;101680.00;;;20.00
19282;BMP180;9774;52.034;5.342;2024-03-17T14:15:22;101671.00;;;20.10
19282;BMP180;9774;52.034;5.342;2024-03-17T14:17:50;101676.00;;;20.30
19282;BMP180;9774;52.034;5.342;2024-03-17T14:20:18;101677.00;;;20.40
19282;BMP180;9774;52.034;5.342;2024-03-17T14:22:46;101665.00;;;20.50